Time;durP1;ratioP1;P1;durP2;ratioP2;P2;SDS_P1;SDS_P2;PMS_P1;PMS_P2;Temp;Humidity;BMP_temperature;BMP_pressure;BME280_temperature;BME280_humidity;BME280_pressure;Samples;Min_cycle;Max_cycle;Signal;HPM_P1;HPM_P2
2023/02/12 00:01:41;;;;;;;32.20;18.50;;;3.30;99.90;;;;;;5070040;28;20522;-76
2023/02/12 00:04:07;;;;;;;;;;;3.20;99.90;;;;;;5069139;28;20032;-74
2023/02/12 00:06:33;;;;;;;36.35;19.90;;;3.10;99.90;;;;;;5068730;28;20003;-75
2023/02/12 00:08:58;;;;;;;;;;;2.90;99.90;;;;;;5069077;28;20083;-75
2023/02/12 00:11:26;;;;;;;39.42;20.05;;;2.80;99.90;;;;;;5068603;28;19908;-73
2023/02/12 00:13:52;;;;;;;34.05;19.52;;;2.70;99.90;;;;;;5069676;28;20032;-73
2023/02/12 00:16:20;;;;;;;;;;;2.70;99.90;;;;;;5070172;28;20016;-74
2023/02/12 00:18:46;;;;;;;34.38;19.77;;;2.60;99.90;;;;;;5068418;28;20320;-75
2023/02/12 00:21:16;;;;;;;37.97;20.27;;;2.60;99.90;;;;;;5069659;28;20062;-74
2023/02/12 00:23:42;;;;;;;33.65;20.05;;;2.50;99.90;;;;;;5069654;28;20036;-74
2023/02/12 00:26:12;;;;;;;;;;;2.40;99.90;;;;;;5069798;28;20025;-76
2023/02/12 00:28:37;;;;;;;27.85;15.07;;;2.50;99.90;;;;;;5068165;28;19954;-75
2023/02/12 00:31:10;;;;;;;;;;;2.50;99.90;;;;;;5069998;28;20028;-75
2023/02/12 00:33:36;;;;;;;29.90;14.85;;;2.50;99.90;;;;;;5068140;28;19908;-74
2023/02/12 00:36:02;;;;;;;;;;;2.50;99.90;;;;;;5068449;28;20032;-75
2023/02/12 00:38:27;;;;;;;22.80;13.77;;;2.50;99.90;;;;;;5067857;28;19954;-74
2023/02/12 00:40:53;;;;;;;;;;;2.50;99.90;;;;;;5068055;28;20110;-75
2023/02/12 00:43:19;;;;;;;23.35;13.48;;;2.60;99.90;;;;;;5067847;28;19970;-74
2023/02/12 00:45:45;;;;;;;;;;;2.70;99.90;;;;;;5069858;28;20440;-76
2023/02/12 00:48:11;;;;;;;24.90;14.18;;;2.70;99.90;;;;;;5069296;28;19928;-76
2023/02/12 00:50:36;;;;;;;;;;;2.70;99.90;;;;;;5069590;28;20021;-76
2023/02/12 00:53:02;;;;;;;24.15;13.60;;;2.60;99.90;;;;;;5067812;28;20403;-77
2023/02/12 00:55:28;;;;;;;;;;;2.70;99.90;;;;;;5068114;28;20028;-77
2023/02/12 00:57:53;;;;;;;23.13;12.43;;;2.70;99.90;;;;;;5068666;28;19919;-76
2023/02/12 01:00:19;;;;;;;;;;;2.80;99.90;;;;;;5067966;28;20043;-76
2023/02/12 01:02:45;;;;;;;28.45;13.20;;;2.90;99.90;;;;;;5068250;28;19909;-76
2023/02/12 01:05:10;;;;;;;;;;;3.00;99.90;;;;;;5068027;28;20040;-77
2023/02/12 01:07:37;;;;;;;28.00;13.35;;;3.00;99.90;;;;;;5068910;28;20661;-76
2023/02/12 01:10:04;;;;;;;27.70;16.38;;;3.00;99.90;;;;;;5069068;28;20069;-78
2023/02/12 01:12:30;;;;;;;33.63;18.75;;;2.90;99.90;;;;;;5068706;28;20036;-76
2023/02/12 01:14:56;;;;;;;;;;;2.80;99.90;;;;;;5069417;28;20028;-75
2023/02/12 01:17:22;;;;;;;54.80;26.63;;;2.60;99.90;;;;;;5068927;28;19909;-76
2023/02/12 01:19:47;;;;;;;;;;;2.50;99.90;;;;;;5069161;28;20488;-76
2023/02/12 01:22:13;;;;;;;45.38;23.10;;;2.40;99.90;;;;;;5068281;28;20396;-76
2023/02/12 01:24:38;;;;;;;;;;;2.20;99.90;;;;;;5067893;28;20397;-76
2023/02/12 01:27:04;;;;;;;32.88;19.15;;;2.00;99.90;;;;;;5067658;28;20376;-78
2023/02/12 01:29:29;;;;;;;;;;;1.90;99.90;;;;;;5069197;28;20025;-76
2023/02/12 01:31:55;;;;;;;40.05;20.88;;;1.80;99.90;;;;;;5068348;28;19955;-76
2023/02/12 01:34:21;;;;;;;;;;;1.70;99.90;;;;;;5067665;28;20152;-76
2023/02/12 01:36:46;;;;;;;47.22;23.75;;;1.70;99.90;;;;;;5067206;28;20446;-75
2023/02/12 01:39:12;;;;;;;;;;;1.70;99.90;;;;;;5067539;28;20038;-75
2023/02/12 01:41:43;;;;;;;58.08;27.25;;;1.60;99.90;;;;;;5068295;28;20486;-76
2023/02/12 01:44:16;;;;;;;54.53;26.75;;;1.50;99.90;;;;;;5068241;28;20029;-75
2023/02/12 01:46:44;;;;;;;56.75;29.00;;;1.50;99.90;;;;;;5068456;28;20484;-75
2023/02/12 01:49:25;;;;;;;53.67;27.30;;;1.50;99.90;;;;;;5068362;28;20029;-75
2023/02/12 01:52:04;;;;;;;62.10;30.52;;;1.50;99.90;;;;;;5067109;28;20093;-76
2023/02/12 01:54:32;;;;;;;69.85;31.38;;;1.50;99.90;;;;;;5068164;28;20028;-76
2023/02/12 01:57:00;;;;;;;75.38;33.50;;;1.40;99.90;;;;;;5068280;28;20032;-76
2023/02/12 01:59:27;;;;;;;65.20;30.88;;;1.30;99.90;;;;;;5067942;28;20053;-75
2023/02/12 02:01:53;;;;;;;63.63;29.75;;;1.20;99.90;;;;;;5066516;28;20059;-76
2023/02/12 02:04:25;;;;;;;57.50;28.75;;;1.10;99.90;;;;;;5067903;28;20028;-76
2023/02/12 02:07:00;;;;;;;61.67;30.42;;;1.00;99.90;;;;;;5068256;28;20500;-76
2023/02/12 02:09:28;;;;;;;59.63;29.50;;;0.90;99.90;;;;;;5066821;28;20063;-76
2023/02/12 02:14:39;;;;;;;77.40;32.22;;;0.80;99.90;;;;;;5070816;28;20075;-75
2023/02/12 02:17:08;;;;;;;87.72;36.92;;;0.70;99.90;;;;;;5072151;28;20086;-76
2023/02/12 02:19:52;;;;;;;74.90;32.35;;;0.70;99.90;;;;;;5070750;28;20389;-76
2023/02/12 02:22:51;;;;;;;67.40;31.30;;;0.80;99.90;;;;;;5071832;28;20024;-76
2023/02/12 02:25:45;;;;;;;47.83;24.27;;;0.70;99.90;;;;;;5071780;28;20039;-78
2023/02/12 02:28:33;;;;;;;51.25;25.17;;;0.80;99.90;;;;;;5072087;28;20467;-77
2023/02/12 02:31:24;;;;;;;44.85;25.90;;;0.80;99.90;;;;;;5071944;28;20024;-76
2023/02/12 02:34:08;;;;;;;49.83;27.38;;;0.70;99.90;;;;;;5071703;28;20017;-77
2023/02/12 02:36:41;;;;;;;56.72;30.02;;;0.60;99.90;;;;;;5071596;28;20535;-76
2023/02/12 02:39:39;;;;;;;53.50;28.08;;;0.60;99.90;;;;;;5070293;28;20031;-76
2023/02/12 02:42:23;;;;;;;52.95;26.73;;;0.60;99.90;;;;;;5062197;28;20416;-76
2023/02/12 02:44:56;;;;;;;51.63;27.50;;;0.60;99.90;;;;;;5070209;28;20032;-76
2023/02/12 02:47:36;;;;;;;56.95;29.23;;;0.60;99.90;;;;;;5071693;28;20029;-76
2023/02/12 02:50:09;;;;;;;50.25;27.10;;;0.70;99.90;;;;;;5071022;28;20035;-76
2023/02/12 02:52:45;;;;;;;52.20;28.42;;;0.60;99.90;;;;;;5069972;28;20024;-76
2023/02/12 02:55:13;;;;;;;52.75;27.40;;;0.60;99.90;;;;;;5070420;28;20066;-77
2023/02/12 02:58:02;;;;;;;56.30;27.77;;;0.50;99.90;;;;;;5070064;28;20020;-75
2023/02/12 03:00:38;;;;;;;57.40;27.77;;;0.40;99.90;;;;;;5071185;28;20045;-77
2023/02/12 03:03:27;;;;;;;51.13;27.70;;;0.40;99.90;;;;;;5071028;28;20024;-75
2023/02/12 03:05:59;;;;;;;55.92;28.95;;;0.30;99.90;;;;;;5071152;28;20102;-76
2023/02/12 03:08:38;;;;;;;46.00;25.05;;;0.20;99.90;;;;;;5069829;28;20063;-76
2023/02/12 03:11:14;;;;;;;49.05;26.20;;;0.10;99.90;;;;;;5071069;28;20127;-76
2023/02/12 03:13:48;;;;;;;53.47;28.00;;;0.00;99.90;;;;;;5071116;28;20497;-76
2023/02/12 03:16:22;;;;;;;63.47;30.38;;;-0.10;99.90;;;;;;5070887;28;20029;-77
2023/02/12 03:19:13;;;;;;;55.78;29.15;;;-0.20;99.90;;;;;;5070637;28;20082;-77
2023/02/12 03:21:54;;;;;;;49.17;24.73;;;-0.30;99.90;;;;;;5070837;28;20028;-77
2023/02/12 03:24:37;;;;;;;49.25;26.30;;;-0.40;99.90;;;;;;5070289;28;20021;-77
2023/02/12 03:27:30;;;;;;;46.75;25.00;;;-0.40;99.90;;;;;;5070795;28;20384;-76
2023/02/12 03:29:57;;;;;;;57.17;28.98;;;-0.40;99.90;;;;;;5070725;28;20024;-76
2023/02/12 03:32:47;;;;;;;61.92;30.17;;;-0.50;99.90;;;;;;5070723;28;20497;-77
2023/02/12 03:35:30;;;;;;;57.83;28.63;;;-0.50;99.90;;;;;;5070695;28;20039;-76
2023/02/12 03:38:19;;;;;;;59.65;32.05;;;-0.50;99.90;;;;;;5070288;28;20032;-77
2023/02/12 03:41:05;;;;;;;53.45;29.40;;;-0.50;99.90;;;;;;5069153;28;20072;-76
2023/02/12 03:43:39;;;;;;;65.65;31.98;;;-0.60;99.90;;;;;;5069208;28;20043;-77
2023/02/12 03:46:14;;;;;;;59.35;29.67;;;-0.60;99.90;;;;;;5070514;28;20028;-76
2023/02/12 03:48:54;;;;;;;58.33;31.30;;;-0.70;99.90;;;;;;5068942;28;20055;-77
2023/02/12 03:51:25;;;;;;;65.32;31.40;;;-0.70;99.90;;;;;;5068939;28;21038;-76
2023/02/12 03:53:51;;;;;;;57.60;29.02;;;-0.80;99.90;;;;;;5070400;28;20021;-76
2023/02/12 03:56:18;;;;;;;;;;;-0.80;99.90;;;;;;5070654;28;20500;-75
2023/02/12 03:58:44;;;;;;;;;;;-0.90;99.90;;;;;;5070558;28;19924;-77
2023/02/12 04:01:11;;;;;;;53.75;25.88;;;-0.90;99.90;;;;;;5069932;28;19923;-75
2023/02/12 04:03:37;;;;;;;53.40;27.65;;;-1.00;99.90;;;;;;5068776;28;20025;-76
2023/02/12 04:06:03;;;;;;;;;;;-1.00;99.90;;;;;;5070778;28;20404;-76
2023/02/12 04:08:30;;;;;;;52.63;24.45;;;-1.10;99.90;;;;;;5069631;28;19914;-76
2023/02/12 04:11:26;;;;;;;54.42;27.40;;;-1.10;99.90;;;;;;5068978;28;20400;-76
2023/02/12 04:14:15;;;;;;;52.22;27.23;;;-1.10;99.90;;;;;;5069877;28;20033;-76
2023/02/12 04:16:53;;;;;;;50.05;25.20;;;-1.20;99.90;;;;;;5068517;28;20035;-75
2023/02/12 04:19:50;;;;;;;57.42;28.48;;;-1.20;99.90;;;;;;5069735;28;20024;-76
2023/02/12 04:22:22;;;;;;;;;;;-1.20;99.90;;;;;;5061375;28;20044;-77
2023/02/12 04:25:06;;;;;;;67.55;31.10;;;-1.10;99.90;;;;;;5069911;28;19905;-76
2023/02/12 04:27:54;;;;;;;55.65;28.05;;;-1.30;99.90;;;;;;5069566;28;20032;-76
2023/02/12 04:30:27;;;;;;;53.65;26.50;;;-1.30;99.90;;;;;;5067224;28;20032;-77
2023/02/12 04:33:01;;;;;;;54.53;27.35;;;-1.30;99.90;;;;;;5069122;28;20029;-75
2023/02/12 04:35:50;;;;;;;61.63;28.30;;;-1.30;99.90;;;;;;5069256;28;20028;-77
2023/02/12 04:38:24;;;;;;;77.15;35.58;;;-1.40;99.90;;;;;;5068909;28;20024;-75
2023/02/12 04:40:50;;;;;;;81.80;36.95;;;-1.50;99.90;;;;;;5069236;28;20129;-76
2023/02/12 04:43:35;;;;;;;84.05;37.08;;;-1.50;99.90;;;;;;5069016;28;20032;-75
2023/02/12 04:46:02;;;;;;;80.38;36.65;;;-1.60;99.90;;;;;;5069174;28;20037;-76
2023/02/12 04:48:27;;;;;;;75.53;36.10;;;-1.60;99.90;;;;;;5069265;28;20153;-76
2023/02/12 04:50:53;;;;;;;;;;;-1.60;99.90;;;;;;5069218;28;20148;-75
2023/02/12 04:53:19;;;;;;;96.93;41.38;;;-1.60;99.90;;;;;;5068210;28;19912;-75
2023/02/12 04:55:44;;;;;;;;;;;-1.60;99.90;;;;;;5068681;28;20032;-76
2023/02/12 04:58:10;;;;;;;93.60;44.70;;;-1.70;99.90;;;;;;5067225;28;19916;-76
2023/02/12 05:00:36;;;;;;;;;;;-1.70;99.90;;;;;;5068542;28;20059;-73
2023/02/12 05:03:02;;;;;;;95.55;42.50;;;-1.70;99.90;;;;;;5066812;28;20288;-74
2023/02/12 05:05:27;;;;;;;;;;;-1.80;99.90;;;;;;5068058;28;20032;-74
2023/02/12 05:07:53;;;;;;;95.10;42.92;;;-1.70;99.90;;;;;;5067092;28;19909;-75
2023/02/12 05:10:19;;;;;;;;;;;-1.80;99.90;;;;;;5069039;28;20611;-73
2023/02/12 05:12:45;;;;;;;75.60;34.13;;;-1.80;99.90;;;;;;5066768;28;19916;-75
2023/02/12 05:15:10;;;;;;;;;;;-1.80;99.90;;;;;;5068271;28;20029;-74
2023/02/12 05:17:37;;;;;;;65.10;29.38;;;-1.80;99.90;;;;;;5068138;28;20403;-75
2023/02/12 05:20:04;;;;;;;67.70;31.48;;;-1.90;99.90;;;;;;5068374;28;20397;-75
2023/02/12 05:22:29;;;;;;;73.53;34.63;;;-1.90;99.90;;;;;;5066781;28;20024;-75
2023/02/12 05:24:55;;;;;;;;;;;-1.90;99.90;;;;;;5068956;28;20021;-76
2023/02/12 05:27:20;;;;;;;65.65;30.73;;;-2.00;99.90;;;;;;5067212;28;20007;-78
2023/02/12 05:29:46;;;;;;;;;;;-2.10;99.90;;;;;;5068630;28;20036;-75
2023/02/12 05:32:12;;;;;;;69.30;34.53;;;-2.00;99.90;;;;;;5066986;28;20377;-74
2023/02/12 05:34:38;;;;;;;72.22;33.90;;;-2.00;99.90;;;;;;5067126;28;20108;-74
2023/02/12 05:37:03;;;;;;;67.93;35.35;;;-2.10;99.90;;;;;;5067542;28;20067;-76
2023/02/12 05:39:29;;;;;;;;;;;-2.00;99.90;;;;;;5069226;28;20043;-75
2023/02/12 05:41:55;;;;;;;62.13;30.52;;;-2.10;99.90;;;;;;5067071;28;19908;-74
2023/02/12 05:44:20;;;;;;;;;;;-2.00;99.90;;;;;;5067436;28;20020;-74
2023/02/12 05:46:46;;;;;;;65.90;29.15;;;-2.00;99.90;;;;;;5068608;28;20023;-77
2023/02/12 05:49:12;;;;;;;;;;;-2.00;99.90;;;;;;5068459;28;20400;-76
2023/02/12 05:51:38;;;;;;;87.53;39.45;;;-2.00;99.90;;;;;;5068228;28;19908;-75
2023/02/12 05:54:04;;;;;;;;;;;-2.00;99.90;;;;;;5067578;28;20024;-75
2023/02/12 05:56:32;;;;;;;81.88;38.72;;;-2.00;99.90;;;;;;5067152;28;20007;-76
2023/02/12 05:59:16;;;;;;;94.45;43.65;;;-2.00;99.90;;;;;;5068085;28;20416;-75
2023/02/12 06:01:43;;;;;;;89.35;43.95;;;-2.00;99.90;;;;;;5066430;28;20532;-77
2023/02/12 06:04:22;;;;;;;89.18;45.53;;;-2.00;99.90;;;;;;5068208;28;20054;-75
2023/02/12 06:06:48;;;;;;;87.25;42.67;;;-2.10;99.90;;;;;;5068236;28;20497;-75
2023/02/12 06:09:14;;;;;;;248.48;111.28;;;-2.10;99.90;;;;;;5068217;28;20035;-75
2023/02/12 06:11:40;;;;;;;;;;;-2.10;99.90;;;;;;5066721;28;20028;-75
2023/02/12 06:14:09;;;;;;;400.08;163.65;;;-2.10;99.90;;;;;;5068015;28;19944;-76
2023/02/12 06:16:35;;;;;;;175.88;75.68;;;-2.10;99.90;;;;;;5068146;28;20139;-74
2023/02/12 06:19:01;;;;;;;;;;;-2.00;99.90;;;;;;5067301;28;20120;-74
2023/02/12 06:21:28;;;;;;;294.63;121.07;;;-2.00;99.90;;;;;;5068000;28;19916;-76
2023/02/12 06:23:54;;;;;;;186.60;80.25;;;-2.10;99.90;;;;;;5066521;28;21016;-75
2023/02/12 06:26:21;;;;;;;103.32;47.55;;;-2.00;99.90;;;;;;5067718;28;20035;-75
2023/02/12 06:28:47;;;;;;;111.68;54.00;;;-2.00;99.90;;;;;;5068051;28;20058;-75
2023/02/12 06:31:24;;;;;;;240.85;108.18;;;-1.90;99.90;;;;;;5066538;28;20105;-75
2023/02/12 06:33:50;;;;;;;122.47;61.03;;;-1.80;99.90;;;;;;5066407;28;20683;-75
2023/02/12 06:36:16;;;;;;;142.38;68.57;;;-1.70;99.90;;;;;;5067735;28;20025;-75
2023/02/12 06:38:42;;;;;;;341.70;130.15;;;-1.60;99.90;;;;;;5067890;28;20032;-75
2023/02/12 06:41:07;;;;;;;;;;;-1.60;99.90;;;;;;5068101;28;20412;-74
2023/02/12 06:43:33;;;;;;;215.65;77.60;;;-1.50;99.90;;;;;;5067704;28;19998;-74
2023/02/12 06:46:02;;;;;;;;;;;-1.40;99.90;;;;;;5066809;28;20036;-74
2023/02/12 06:48:28;;;;;;;179.60;69.32;;;-1.30;99.90;;;;;;5067542;28;19954;-76
2023/02/12 06:50:54;;;;;;;137.57;61.88;;;-0.80;99.90;;;;;;5067634;28;20469;-75
2023/02/12 06:53:19;;;;;;;;;;;-0.30;99.90;;;;;;5066640;28;20039;-75
2023/02/12 06:55:45;;;;;;;121.78;58.22;;;0.40;99.90;;;;;;5066162;28;19908;-76
2023/02/12 06:58:11;;;;;;;;;;;1.20;99.90;;;;;;5066329;28;20052;-75
2023/02/12 07:00:36;;;;;;;106.07;50.45;;;1.80;99.90;;;;;;5068330;28;19922;-75
2023/02/12 07:03:02;;;;;;;;;;;2.40;99.90;;;;;;5070480;28;20039;-75
2023/02/12 07:05:27;;;;;;;78.25;41.85;;;2.90;99.90;;;;;;5069771;28;19991;-75
2023/02/12 07:07:53;;;;;;;77.55;41.78;;;3.70;99.90;;;;;;5069627;28;20033;-75
2023/02/12 07:10:19;;;;;;;;;;;4.10;99.90;;;;;;5071309;28;20511;-75
2023/02/12 07:12:45;;;;;;;61.28;34.80;;;4.50;99.90;;;;;;5070956;28;20482;-75
2023/02/12 07:15:11;;;;;;;79.20;42.97;;;4.60;99.90;;;;;;5070889;28;20625;-75
2023/02/12 07:17:36;;;;;;;;;;;5.00;99.90;;;;;;5069809;28;20036;-75
2023/02/12 07:20:03;;;;;;;119.00;55.38;;;5.40;99.90;;;;;;5069510;28;19974;-75
2023/02/12 07:22:28;;;;;;;103.32;53.63;;;5.40;99.90;;;;;;5070367;28;20048;-75
2023/02/12 07:24:54;;;;;;;;;;;5.70;99.90;;;;;;5071067;28;20825;-74
2023/02/12 07:27:19;;;;;;;184.45;94.50;;;5.80;98.60;;;;;;5070630;28;19904;-75
2023/02/12 07:29:45;;;;;;;;;;;5.80;97.40;;;;;;5071110;28;20675;-74
2023/02/12 07:32:11;;;;;;;141.82;73.40;;;5.80;99.90;;;;;;5069663;28;20347;-76
2023/02/12 07:34:36;;;;;;;;;;;6.00;99.40;;;;;;5070968;28;20029;-76
2023/02/12 07:37:02;;;;;;;90.32;49.30;;;6.30;97.60;;;;;;5069053;28;19947;-76
2023/02/12 07:39:27;;;;;;;;;;;6.20;96.80;;;;;;5070978;28;20029;-75
2023/02/12 07:41:55;;;;;;;66.75;37.13;;;5.70;99.00;;;;;;5070061;28;19916;-74
2023/02/12 07:44:21;;;;;;;67.60;39.58;;;5.40;99.90;;;;;;5068858;28;20021;-74
2023/02/12 07:46:47;;;;;;;;;;;5.00;99.90;;;;;;5069618;28;20039;-74
2023/02/12 07:49:21;;;;;;;75.87;45.20;;;4.90;99.90;;;;;;5070425;28;19908;-74
2023/02/12 07:51:48;;;;;;;75.30;42.70;;;4.80;99.90;;;;;;5070270;28;20504;-74
2023/02/12 07:54:14;;;;;;;88.43;53.00;;;4.80;99.90;;;;;;5068747;28;20059;-73
2023/02/12 07:56:41;;;;;;;92.22;50.78;;;4.80;99.90;;;;;;5070202;28;20029;-74
2023/02/12 07:59:10;;;;;;;76.15;45.35;;;4.70;99.90;;;;;;5068595;28;20056;-74
2023/02/12 08:01:40;;;;;;;61.75;37.03;;;4.60;99.90;;;;;;5069836;28;20771;-74
2023/02/12 08:04:14;;;;;;;56.33;33.22;;;4.60;99.90;;;;;;5070066;28;20033;-75
2023/02/12 08:06:44;;;;;;;89.88;49.67;;;4.60;99.90;;;;;;5068782;28;20102;-76
2023/02/12 08:09:12;;;;;;;88.22;50.42;;;4.50;99.90;;;;;;5069851;28;20058;-73
2023/02/12 08:11:39;;;;;;;79.65;44.20;;;4.50;99.90;;;;;;5069721;28;20524;-74
2023/02/12 08:14:05;;;;;;;69.65;40.03;;;4.50;99.90;;;;;;5069904;28;20563;-75
2023/02/12 08:16:30;;;;;;;;;;;4.40;99.90;;;;;;5068725;28;20033;-74
2023/02/12 08:18:59;;;;;;;44.78;26.35;;;4.50;99.90;;;;;;5068426;28;19908;-74
2023/02/12 08:21:27;;;;;;;47.85;30.00;;;4.60;99.90;;;;;;5069314;28;20080;-73
2023/02/12 08:23:55;;;;;;;48.88;29.05;;;4.60;99.90;;;;;;5069665;28;20021;-74
2023/02/12 08:26:23;;;;;;;51.65;28.00;;;4.60;99.90;;;;;;5068065;28;20413;-74
2023/02/12 08:28:52;;;;;;;55.88;31.38;;;4.80;99.90;;;;;;5068243;28;20586;-74
2023/02/12 08:31:27;;;;;;;82.50;46.83;;;4.90;99.90;;;;;;5069538;28;20033;-75
2023/02/12 08:33:54;;;;;;;100.38;54.38;;;5.00;99.90;;;;;;5067998;28;20025;-76
2023/02/12 08:36:34;;;;;;;95.20;55.33;;;5.20;99.90;;;;;;5067946;28;20051;-75
2023/02/12 08:38:59;;;;;;;99.15;56.25;;;5.40;99.90;;;;;;5069286;28;20032;-75
2023/02/12 08:41:27;;;;;;;;;;;5.80;99.90;;;;;;5068159;28;20466;-75
2023/02/12 08:43:55;;;;;;;91.72;50.15;;;6.20;99.90;;;;;;5067819;28;20365;-75
2023/02/12 08:46:23;;;;;;;78.55;46.05;;;6.90;99.90;;;;;;5067663;28;20111;-76
2023/02/12 08:48:53;;;;;;;74.38;45.33;;;7.70;99.90;;;;;;5069233;28;20024;-75
2023/02/12 08:51:21;;;;;;;74.32;43.85;;;8.40;94.60;;;;;;5067800;28;20451;-76
2023/02/12 08:53:50;;;;;;;57.70;36.88;;;9.10;92.20;;;;;;5069145;28;20029;-75
2023/02/12 08:56:17;;;;;;;62.60;38.80;;;9.70;88.30;;;;;;5068967;28;20035;-75
2023/02/12 08:58:44;;;;;;;59.22;39.00;;;9.80;82.90;;;;;;5068948;28;20079;-76
2023/02/12 09:01:12;;;;;;;56.22;36.80;;;9.80;82.50;;;;;;5067465;28;20231;-74
2023/02/12 09:03:38;;;;;;;64.50;40.13;;;9.70;79.30;;;;;;5068788;28;20051;-75
2023/02/12 09:06:04;;;;;;;;;;;9.40;80.80;;;;;;5067881;28;20489;-74
2023/02/12 09:08:30;;;;;;;59.87;37.13;;;9.00;81.50;;;;;;5067145;28;20273;-74
2023/02/12 09:10:56;;;;;;;58.67;36.97;;;9.10;83.80;;;;;;5068498;28;20124;-75
2023/02/12 09:13:22;;;;;;;;;;;9.10;83.30;;;;;;5067802;28;20112;-76
2023/02/12 09:15:48;;;;;;;73.38;48.90;;;9.00;80.50;;;;;;5067084;28;19944;-75
2023/02/12 09:18:14;;;;;;;;;;;9.00;83.60;;;;;;5069021;28;20090;-76
2023/02/12 09:20:42;;;;;;;65.38;39.75;;;8.90;80.30;;;;;;5068401;28;19939;-76
2023/02/12 09:23:10;;;;;;;60.38;38.85;;;8.60;82.90;;;;;;5066482;28;20082;-75
2023/02/12 09:25:40;;;;;;;58.78;38.75;;;8.40;84.90;;;;;;5067341;28;20062;-75
2023/02/12 09:28:06;;;;;;;65.18;40.95;;;8.10;87.20;;;;;;5067068;28;20060;-75
2023/02/12 09:30:32;;;;;;;;;;;8.00;89.10;;;;;;5067737;28;20056;-74
2023/02/12 09:32:58;;;;;;;70.93;44.15;;;7.90;88.90;;;;;;5068540;28;19998;-75
2023/02/12 09:35:23;;;;;;;;;;;7.90;90.60;;;;;;5067673;28;20579;-76
2023/02/12 09:37:52;;;;;;;69.80;43.38;;;8.00;90.80;;;;;;5066967;28;19927;-75
2023/02/12 09:40:57;;;;;;;71.35;45.85;;;8.20;89.00;;;;;;5066773;28;20032;-75
2023/02/12 09:43:43;;;;;;;69.50;42.47;;;8.20;89.00;;;;;;5066579;28;20024;-75
2023/02/12 09:46:15;;;;;;;68.70;44.38;;;8.50;86.10;;;;;;5067955;28;20032;-77
2023/02/12 09:49:11;;;;;;;65.80;41.75;;;8.60;84.90;;;;;;5066675;28;20469;-76
2023/02/12 09:51:41;;;;;;;69.78;41.70;;;8.80;84.50;;;;;;5066589;28;20028;-78
2023/02/12 09:54:09;;;;;;;64.20;39.45;;;9.00;84.70;;;;;;5066757;28;20028;-77
2023/02/12 09:56:37;;;;;;;65.95;41.92;;;9.40;82.00;;;;;;5068147;28;20037;-77
2023/02/12 09:59:06;;;;;;;58.97;37.50;;;9.40;82.00;;;;;;5066370;28;20048;-77
2023/02/12 10:01:32;;;;;;;54.53;33.67;;;9.30;81.10;;;;;;5067743;28;20378;-78
2023/02/12 10:03:58;;;;;;;59.08;37.05;;;9.10;81.30;;;;;;5067864;28;20029;-77
2023/02/12 10:06:25;;;;;;;;;;;9.00;81.90;;;;;;5067114;28;20063;-76
2023/02/12 10:09:19;;;;;;;58.15;36.28;;;8.80;82.50;;;;;;5068288;28;19995;-78
2023/02/12 10:12:03;;;;;;;59.40;35.13;;;8.50;85.90;;;;;;5068011;28;20540;-77
2023/02/12 10:14:49;;;;;;;57.05;37.78;;;8.40;87.30;;;;;;5067534;28;20028;-77
2023/02/12 10:17:42;;;;;;;65.13;39.97;;;8.10;88.70;;;;;;5066938;28;20028;-77
2023/02/12 10:20:23;;;;;;;59.75;39.38;;;7.70;91.10;;;;;;5066687;28;20036;-76
2023/02/12 10:23:07;;;;;;;64.30;38.63;;;7.60;93.40;;;;;;5067974;28;20112;-75
2023/02/12 10:25:49;;;;;;;58.08;36.58;;;7.60;94.20;;;;;;5066463;28;20033;-78
2023/02/12 10:28:39;;;;;;;55.22;35.88;;;7.60;94.40;;;;;;5065937;28;20024;-77
2023/02/12 10:31:18;;;;;;;62.28;37.45;;;7.60;94.40;;;;;;5065918;28;20032;-78
2023/02/12 10:33:49;;;;;;;83.25;49.10;;;7.60;94.60;;;;;;5066190;28;20556;-77
2023/02/12 10:36:41;;;;;;;98.88;52.80;;;7.60;94.70;;;;;;5069609;28;20031;-77
2023/02/12 10:39:13;;;;;;;65.53;40.53;;;7.70;95.70;;;;;;5069893;28;20492;-76
2023/02/12 10:41:52;;;;;;;59.35;35.92;;;7.90;95.40;;;;;;5069906;28;20508;-77
2023/02/12 10:44:18;;;;;;;58.53;34.47;;;8.10;94.40;;;;;;5071280;28;20027;-76
2023/02/12 10:46:44;;;;;;;;;;;8.30;94.20;;;;;;5070416;28;20037;-76
2023/02/12 10:49:13;;;;;;;54.92;35.05;;;8.40;93.20;;;;;;5069938;28;20312;-77
2023/02/12 10:52:09;;;;;;;56.00;35.15;;;8.60;93.20;;;;;;5071008;28;20050;-77
2023/02/12 10:54:44;;;;;;;56.35;34.80;;;8.90;92.00;;;;;;5069671;28;20658;-78
2023/02/12 10:57:19;;;;;;;85.88;51.55;;;9.20;91.20;;;;;;5069830;28;20664;-79
2023/02/12 10:59:47;;;;;;;59.67;37.83;;;9.40;90.10;;;;;;5070382;28;20144;-77
2023/02/12 11:02:27;;;;;;;59.45;37.67;;;9.60;86.40;;;;;;5070572;28;20028;-77
2023/02/12 11:04:55;;;;;;;60.63;36.63;;;9.50;86.00;;;;;;5070984;28;20024;-78
2023/02/12 11:07:21;;;;;;;51.28;32.78;;;9.50;88.10;;;;;;5070606;28;20037;-77
2023/02/12 11:09:49;;;;;;;54.50;33.63;;;9.50;88.10;;;;;;5069089;28;20094;-77
2023/02/12 11:12:35;;;;;;;56.28;35.58;;;9.40;86.00;;;;;;5068789;28;20102;-77
2023/02/12 11:15:18;;;;;;;54.90;35.70;;;9.20;86.10;;;;;;5069535;28;20119;-77
2023/02/12 11:17:54;;;;;;;51.50;33.53;;;9.10;90.00;;;;;;5069476;28;20029;-77
2023/02/12 11:20:40;;;;;;;48.25;30.98;;;9.10;90.00;;;;;;5070433;28;20408;-77
2023/02/12 11:23:40;;;;;;;55.65;35.22;;;9.20;89.70;;;;;;5070240;28;20071;-76
2023/02/12 11:26:05;;;;;;;57.50;33.63;;;9.10;86.00;;;;;;5069391;28;20033;-76
2023/02/12 11:28:32;;;;;;;;;;;9.00;88.20;;;;;;5070796;28;20036;-76
2023/02/12 11:31:08;;;;;;;56.13;34.78;;;8.90;90.80;;;;;;5068984;28;19996;-78
2023/02/12 11:33:38;;;;;;;53.42;30.65;;;9.00;91.00;;;;;;5069650;28;20035;-77
2023/02/12 11:36:09;;;;;;;48.40;28.73;;;9.10;91.50;;;;;;5070315;28;20105;-77
2023/02/12 11:38:38;;;;;;;42.45;26.63;;;9.10;91.50;;;;;;5068545;28;20024;-77
2023/02/12 11:41:20;;;;;;;53.13;31.88;;;9.20;91.10;;;;;;5070377;28;20071;-76
2023/02/12 11:43:46;;;;;;;41.47;26.98;;;8.90;91.70;;;;;;5068812;28;20611;-77
2023/02/12 11:46:17;;;;;;;;;;;8.80;92.80;;;;;;5068901;28;20029;-77
2023/02/12 11:48:46;;;;;;;42.13;26.67;;;8.70;92.90;;;;;;5070236;28;19930;-76
2023/02/12 11:51:20;;;;;;;44.33;27.15;;;8.40;95.70;;;;;;5068463;28;20347;-77
2023/02/12 11:53:50;;;;;;;45.72;27.67;;;8.30;96.80;;;;;;5069935;28;20036;-78
2023/02/12 11:56:17;;;;;;;47.58;27.00;;;8.30;97.20;;;;;;5070034;28;20028;-77
2023/02/12 11:58:44;;;;;;;39.92;24.58;;;8.30;97.80;;;;;;5069825;28;20110;-77
2023/02/12 12:01:29;;;;;;;38.45;22.92;;;8.30;98.90;;;;;;5069351;28;20044;-78
2023/02/12 12:04:11;;;;;;;34.42;21.73;;;8.30;99.40;;;;;;5068251;28;20738;-76
2023/02/12 12:06:43;;;;;;;35.80;21.30;;;8.30;99.60;;;;;;5068686;28;20036;-77
2023/02/12 12:09:20;;;;;;;33.55;19.92;;;8.40;99.90;;;;;;5069742;28;20098;-76
2023/02/12 12:11:53;;;;;;;31.95;18.85;;;8.40;99.90;;;;;;5070041;28;20029;-77
2023/02/12 12:14:24;;;;;;;28.33;17.75;;;8.50;99.90;;;;;;5068465;28;20071;-77
2023/02/12 12:20:10;;;;;;;30.20;19.38;;;8.40;99.90;;;;;;5070140;28;20131;-77
2023/02/12 12:22:38;;;;;;;34.22;20.52;;;8.40;99.90;;;;;;5068044;28;20028;-77
2023/02/12 12:25:19;;;;;;;30.92;17.52;;;8.30;99.90;;;;;;5070093;28;20020;-78
2023/02/12 12:28:11;;;;;;;26.85;16.35;;;8.20;99.90;;;;;;5068675;28;20032;-77
2023/02/12 12:30:55;;;;;;;29.88;17.30;;;8.10;99.90;;;;;;5068427;28;20489;-78
2023/02/12 12:34:02;;;;;;;26.90;17.08;;;8.10;99.90;;;;;;5068453;28;20025;-77
2023/02/12 12:36:46;;;;;;;29.40;17.25;;;8.10;99.90;;;;;;5041185;28;20067;-76
2023/02/12 12:39:45;;;;;;;29.20;17.75;;;8.10;99.90;;;;;;5068090;28;20466;-78
2023/02/12 12:42:37;;;;;;;30.20;19.85;;;8.10;99.90;;;;;;5068807;28;20044;-76
2023/02/12 12:45:46;;;;;;;38.28;22.90;;;8.20;99.90;;;;;;5068834;28;20024;-76
2023/02/12 12:48:15;;;;;;;45.03;26.67;;;8.20;99.90;;;;;;5068906;28;20032;-77
2023/02/12 12:50:59;;;;;;;38.20;23.88;;;8.10;99.90;;;;;;5067863;28;20125;-77
2023/02/12 12:53:54;;;;;;;36.03;21.90;;;8.10;99.90;;;;;;5069025;28;20159;-76
2023/02/12 12:56:36;;;;;;;37.20;22.35;;;8.20;99.90;;;;;;5067284;28;20025;-77
2023/02/12 12:59:21;;;;;;;33.78;19.60;;;8.20;99.90;;;;;;5068429;28;20055;-77
2023/02/12 13:02:20;;;;;;;39.65;23.38;;;8.20;99.90;;;;;;5067383;28;20068;-77
2023/02/12 13:05:18;;;;;;;34.72;21.65;;;8.20;99.90;;;;;;5027620;28;20090;-76
2023/02/12 13:07:50;;;;;;;39.78;23.15;;;8.40;99.90;;;;;;5068872;28;20032;-77
2023/02/12 13:10:34;;;;;;;33.53;21.27;;;8.40;99.90;;;;;;5067268;28;20109;-77
2023/02/12 13:13:38;;;;;;;29.40;19.42;;;8.30;99.90;;;;;;5068765;28;20031;-77
2023/02/12 13:16:25;;;;;;;29.27;18.13;;;8.40;99.90;;;;;;5067470;28;20048;-78
2023/02/12 13:18:56;;;;;;;33.03;16.15;;;8.50;99.90;;;;;;5067436;28;20432;-78
2023/02/12 13:21:44;;;;;;;22.88;14.15;;;8.70;99.90;;;;;;5068523;28;20044;-77
2023/02/12 13:24:31;;;;;;;29.30;16.30;;;8.70;99.90;;;;;;5068657;28;20107;-78
2023/02/12 13:27:01;;;;;;;30.50;18.55;;;8.80;99.00;;;;;;5069006;28;20035;-76